createdAt,value
2023-05-21T00:00:44.914Z,67.67
2023-05-21T00:03:14.580Z,67.75
2023-05-21T00:05:42.069Z,67.58
2023-05-21T00:08:09.444Z,67.76
2023-05-21T00:10:36.845Z,66.95
2023-05-21T00:13:04.172Z,66.75
2023-05-21T00:15:31.458Z,66.45
2023-05-21T00:17:58.801Z,67.31
2023-05-21T00:20:26.171Z,66.99
2023-05-21T00:22:53.562Z,67.02
2023-05-21T00:25:20.984Z,67.88
2023-05-21T00:27:49.303Z,68.40
2023-05-21T00:30:17.009Z,68.04
2023-05-21T00:32:44.496Z,70.12
2023-05-21T00:35:12.052Z,70.20
2023-05-21T00:37:39.323Z,70.56
2023-05-21T00:40:08.998Z,71.59
2023-05-21T00:42:39.343Z,71.00
2023-05-21T00:45:07.849Z,71.24
2023-05-21T00:47:35.908Z,71.46
2023-05-21T00:50:04.208Z,70.86
2023-05-21T00:52:31.485Z,71.47
2023-05-21T00:54:58.847Z,70.82
2023-05-21T00:57:27.219Z,70.07
2023-05-21T00:59:54.687Z,70.54
2023-05-21T01:02:24.472Z,71.46
2023-05-21T01:04:54.759Z,70.74
2023-05-21T01:07:22.059Z,71.06
2023-05-21T01:09:49.620Z,70.66
2023-05-21T01:12:18.059Z,70.87
2023-05-21T01:14:45.902Z,69.98
2023-05-21T01:17:13.845Z,70.16
2023-05-21T01:19:42.686Z,71.93
2023-05-21T01:22:10.882Z,71.69
2023-05-21T01:24:38.318Z,72.57
2023-05-21T01:27:07.714Z,72.39
2023-05-21T01:29:35.137Z,71.94
2023-05-21T01:32:09.872Z,72.74
2023-05-21T01:34:43.301Z,72.82
2023-05-21T01:37:24.376Z,71.13
2023-05-21T01:40:04.001Z,70.99
2023-05-21T01:42:32.284Z,72.91
2023-05-21T01:45:00.298Z,73.20
2023-05-21T01:47:29.476Z,72.44
2023-05-21T01:49:57.083Z,71.84
2023-05-21T01:52:24.599Z,71.47
2023-05-21T01:54:54.335Z,71.80
2023-05-21T01:57:21.726Z,73.04
2023-05-21T01:59:49.070Z,72.55
2023-05-21T02:02:16.632Z,72.89
2023-05-21T02:04:44.315Z,73.97
2023-05-21T02:07:14.582Z,73.48
2023-05-21T02:09:41.974Z,73.24
2023-05-21T02:12:09.310Z,73.00
2023-05-21T02:14:38.355Z,72.98
2023-05-21T02:17:05.772Z,73.42
2023-05-21T02:19:33.072Z,75.00
2023-05-21T02:22:00.513Z,75.10
2023-05-21T02:24:27.780Z,75.70
2023-05-21T02:26:55.022Z,75.91
2023-05-21T02:29:22.368Z,74.74
2023-05-21T02:31:50.985Z,76.10
2023-05-21T02:34:20.776Z,75.48
2023-05-21T02:36:54.713Z,75.43
2023-05-21T02:39:22.396Z,74.14
2023-05-21T02:41:49.679Z,73.89
2023-05-21T02:44:19.034Z,75.35
2023-05-21T02:46:46.408Z,74.32
2023-05-21T02:49:13.821Z,73.90
2023-05-21T02:51:42.473Z,75.57
2023-05-21T02:54:09.766Z,76.18
2023-05-21T02:56:37.086Z,76.51
2023-05-21T02:59:04.413Z,77.00
2023-05-21T03:01:32.023Z,78.06
2023-05-21T03:03:59.382Z,78.47
2023-05-21T03:06:26.693Z,78.13
2023-05-21T03:08:54.117Z,78.62
2023-05-21T03:11:22.495Z,79.04
2023-05-21T03:13:50.004Z,77.83
2023-05-21T03:16:17.624Z,77.29
2023-05-21T03:18:45.145Z,77.85
2023-05-21T03:21:13.273Z,78.12
2023-05-21T03:23:41.888Z,78.30
2023-05-21T03:26:09.260Z,78.36
2023-05-21T03:28:36.517Z,78.54
2023-05-21T03:31:04.197Z,77.46
2023-05-21T03:33:46.106Z,77.21
2023-05-21T03:36:21.769Z,76.10
2023-05-21T03:38:49.168Z,76.96
2023-05-21T03:41:16.487Z,77.63
2023-05-21T03:43:47.441Z,78.53
2023-05-21T03:46:14.942Z,79.83
2023-05-21T03:49:05.991Z,80.33
2023-05-21T03:51:36.044Z,80.61
2023-05-21T03:54:03.231Z,80.53
2023-05-21T03:56:31.290Z,79.77
2023-05-21T03:58:58.574Z,79.66
2023-05-21T04:01:28.345Z,78.68
2023-05-21T04:03:56.315Z,78.28
2023-05-21T04:06:25.534Z,77.63
2023-05-21T04:08:52.864Z,78.61
2023-05-21T04:11:20.214Z,79.18
2023-05-21T04:13:48.942Z,79.49
2023-05-21T04:16:19.277Z,79.63
2023-05-21T04:18:47.366Z,79.00
2023-05-21T04:21:16.377Z,78.79
2023-05-21T04:23:43.992Z,80.42
2023-05-21T04:26:23.810Z,80.18
2023-05-21T04:28:51.250Z,79.68
2023-05-21T04:31:18.667Z,79.51
2023-05-21T04:33:46.209Z,79.86
2023-05-21T04:36:13.737Z,79.42
2023-05-21T04:38:41.891Z,78.97
2023-05-21T04:41:10.807Z,79.13
2023-05-21T04:43:38.376Z,79.49
2023-05-21T04:46:06.071Z,79.62
2023-05-21T04:48:34.477Z,79.24
2023-05-21T04:51:01.964Z,79.02
2023-05-21T04:53:29.955Z,80.31
2023-05-21T04:55:59.454Z,79.52
2023-05-21T04:58:28.014Z,79.14
2023-05-21T05:00:56.034Z,78.91
2023-05-21T05:03:23.494Z,78.64
2023-05-21T05:05:51.607Z,77.35
2023-05-21T05:08:18.971Z,76.70
2023-05-21T05:10:46.451Z,75.24
2023-05-21T05:13:13.836Z,75.61
2023-05-21T05:15:41.461Z,74.20
2023-05-21T05:18:09.114Z,75.60
2023-05-21T05:20:36.481Z,74.96
2023-05-21T05:23:03.786Z,74.40
2023-05-21T05:25:31.203Z,74.45
2023-05-21T05:27:58.864Z,75.11
2023-05-21T05:30:26.282Z,75.09
2023-05-21T05:32:56.880Z,75.23
2023-05-21T05:35:24.730Z,74.43
2023-05-21T05:37:52.082Z,75.74
2023-05-21T05:40:19.417Z,75.67
2023-05-21T05:42:46.907Z,74.14
2023-05-21T05:45:16.272Z,75.83
2023-05-21T05:47:45.684Z,75.83
2023-05-21T05:50:13.069Z,76.02
2023-05-21T05:52:41.048Z,76.50
2023-05-21T05:55:09.053Z,76.79
2023-05-21T05:57:36.617Z,77.61
2023-05-21T06:00:12.847Z,78.02
2023-05-21T06:02:41.026Z,77.49
2023-05-21T06:05:10.059Z,75.15
2023-05-21T06:07:38.575Z,75.13
2023-05-21T06:10:06.998Z,75.50
2023-05-21T06:12:34.509Z,74.16
2023-05-21T06:15:01.914Z,73.35
2023-05-21T06:17:29.884Z,72.61
2023-05-21T06:19:57.561Z,72.55
2023-05-21T06:22:25.888Z,73.38
2023-05-21T06:24:53.584Z,74.24
2023-05-21T06:27:21.738Z,73.58
2023-05-21T06:29:50.044Z,73.08
2023-05-21T06:32:17.621Z,72.30
2023-05-21T06:34:45.017Z,72.02
2023-05-21T06:37:12.366Z,71.96
2023-05-21T06:39:39.654Z,72.73
2023-05-21T06:42:07.350Z,72.04
2023-05-21T06:44:54.825Z,70.90
2023-05-21T06:47:43.777Z,70.10
2023-05-21T06:50:11.288Z,70.19
2023-05-21T06:52:38.608Z,69.70
2023-05-21T06:55:08.178Z,70.40
2023-05-21T06:58:00.870Z,70.66
2023-05-21T07:00:28.189Z,71.77
2023-05-21T07:02:55.764Z,71.08
2023-05-21T07:05:23.122Z,69.68
2023-05-21T07:07:50.704Z,70.47
2023-05-21T07:10:18.051Z,70.52
2023-05-21T07:12:45.488Z,70.23
2023-05-21T07:15:12.846Z,69.55
2023-05-21T07:17:40.216Z,69.11
2023-05-21T07:20:09.927Z,69.00
2023-05-21T07:22:39.419Z,69.52
2023-05-21T07:25:09.151Z,68.54
2023-05-21T07:27:36.486Z,68.49
2023-05-21T07:30:04.996Z,67.47
2023-05-21T07:32:33.099Z,67.51
2023-05-21T07:35:03.957Z,66.39
2023-05-21T07:37:32.200Z,66.93
2023-05-21T07:40:00.005Z,66.41
2023-05-21T07:42:27.382Z,65.49
2023-05-21T07:44:56.784Z,64.71
2023-05-21T07:47:26.003Z,64.50
2023-05-21T07:49:53.459Z,63.68
2023-05-21T07:52:21.256Z,63.39
2023-05-21T07:54:48.662Z,63.86
2023-05-21T07:57:16.618Z,62.52
2023-05-21T07:59:59.871Z,61.74
2023-05-21T08:02:27.426Z,61.89
2023-05-21T08:04:55.283Z,60.99
2023-05-21T08:07:22.834Z,60.81
2023-05-21T08:09:50.202Z,61.09
2023-05-21T08:12:19.223Z,60.23
2023-05-21T08:14:46.446Z,60.63
2023-05-21T08:17:16.467Z,60.33
2023-05-21T08:19:44.627Z,60.40
2023-05-21T08:22:12.113Z,60.81
2023-05-21T08:24:42.773Z,61.06
2023-05-21T08:27:10.259Z,61.42
2023-05-21T08:29:38.116Z,61.12
2023-05-21T08:32:06.905Z,61.27
2023-05-21T08:34:34.276Z,61.06
2023-05-21T08:37:18.425Z,61.46
2023-05-21T08:40:00.907Z,62.16
2023-05-21T08:42:43.909Z,61.40
2023-05-21T08:45:22.365Z,60.92
2023-05-21T08:47:59.625Z,60.32
2023-05-21T08:50:31.540Z,60.82
2023-05-21T08:53:07.508Z,61.10
2023-05-21T08:55:43.901Z,60.32
2023-05-21T08:58:13.680Z,59.80
2023-05-21T09:00:41.178Z,59.21
2023-05-21T09:03:12.450Z,59.01
2023-05-21T09:05:42.332Z,58.11
2023-05-21T09:08:22.091Z,57.16
2023-05-21T09:11:08.619Z,58.79
2023-05-21T09:13:43.748Z,58.56
2023-05-21T09:16:17.554Z,58.78
2023-05-21T09:18:45.890Z,58.16
2023-05-21T09:21:24.490Z,57.58
2023-05-21T09:23:57.292Z,57.59
2023-05-21T09:26:25.730Z,56.99
2023-05-21T09:28:58.373Z,57.43
2023-05-21T09:31:26.906Z,58.35
2023-05-21T09:33:55.803Z,58.22
2023-05-21T09:36:24.484Z,57.92
2023-05-21T09:38:52.437Z,57.96
2023-05-21T09:41:22.118Z,57.58
2023-05-21T09:43:49.892Z,58.70
2023-05-21T09:46:21.864Z,58.40
2023-05-21T09:48:49.265Z,58.66
2023-05-21T09:51:20.466Z,59.22
2023-05-21T09:53:57.884Z,59.08
2023-05-21T09:56:26.857Z,59.37
2023-05-21T09:58:55.138Z,58.80
2023-05-21T10:01:23.979Z,57.93
2023-05-21T10:03:57.186Z,58.43
2023-05-21T10:06:27.101Z,58.98
2023-05-21T10:08:59.821Z,58.89
2023-05-21T10:11:28.027Z,58.29
2023-05-21T10:14:01.606Z,58.37
2023-05-21T10:16:29.832Z,57.99
2023-05-21T10:18:58.153Z,57.93
2023-05-21T10:21:26.595Z,58.12
2023-05-21T10:23:57.128Z,57.95
2023-05-21T10:26:25.160Z,57.72
2023-05-21T10:28:52.494Z,56.79
2023-05-21T10:31:20.161Z,57.08
2023-05-21T10:33:48.964Z,57.11
2023-05-21T10:36:20.262Z,56.69
2023-05-21T10:38:47.955Z,56.93
2023-05-21T10:41:16.271Z,56.60
2023-05-21T10:44:01.588Z,55.14
2023-05-21T10:46:38.024Z,55.76
2023-05-21T10:49:30.697Z,55.43
2023-05-21T10:52:25.951Z,55.47
2023-05-21T10:55:12.877Z,55.16
2023-05-21T10:57:59.744Z,55.78
2023-05-21T11:00:27.660Z,55.35
2023-05-21T11:02:55.983Z,55.13
2023-05-21T11:05:57.547Z,55.48
2023-05-21T11:08:25.920Z,54.39
2023-05-21T11:10:54.971Z,54.36
2023-05-21T11:13:25.046Z,53.29
2023-05-21T11:15:58.313Z,53.35
2023-05-21T11:18:46.176Z,53.47
2023-05-21T11:21:18.698Z,52.50
2023-05-21T11:23:52.463Z,53.40
2023-05-21T11:26:24.169Z,53.68
2023-05-21T11:29:03.397Z,53.48
2023-05-21T11:31:38.330Z,52.52
2023-05-21T11:34:15.145Z,53.60
2023-05-21T11:36:48.288Z,53.81
2023-05-21T11:39:24.039Z,52.29
2023-05-21T11:41:54.896Z,51.93
2023-05-21T11:44:39.452Z,51.30
2023-05-21T11:47:08.177Z,51.86
2023-05-21T11:49:36.640Z,51.09
2023-05-21T11:52:05.633Z,50.69
2023-05-21T11:54:37.605Z,50.66
2023-05-21T11:57:08.553Z,50.34
2023-05-21T11:59:37.131Z,51.62
2023-05-21T12:02:05.289Z,51.13
2023-05-21T12:04:32.983Z,50.68
2023-05-21T12:07:05.098Z,50.24
2023-05-21T12:09:39.047Z,49.93
2023-05-21T12:12:08.946Z,49.96
2023-05-21T12:14:37.363Z,49.67
2023-05-21T12:17:05.868Z,49.74
2023-05-21T12:19:37.663Z,50.65
2023-05-21T12:22:05.961Z,50.26
2023-05-21T12:24:34.621Z,49.20
2023-05-21T12:27:02.984Z,49.22
2023-05-21T12:29:31.830Z,49.02
2023-05-21T12:32:00.533Z,49.44
2023-05-21T12:34:46.786Z,49.40
2023-05-21T12:37:24.428Z,50.07
2023-05-21T12:39:53.068Z,50.91
2023-05-21T12:42:30.791Z,51.30
2023-05-21T12:44:58.480Z,49.93
2023-05-21T12:47:27.373Z,49.89
2023-05-21T12:49:58.090Z,49.40
2023-05-21T12:52:27.219Z,49.46
2023-05-21T12:54:56.584Z,49.12
2023-05-21T12:57:25.112Z,49.63
2023-05-21T12:59:56.880Z,49.15
2023-05-21T13:02:24.134Z,49.47
2023-05-21T13:04:58.259Z,50.56
2023-05-21T13:07:26.575Z,50.85
2023-05-21T13:09:54.589Z,51.05
2023-05-21T13:12:23.897Z,50.36
2023-05-21T13:14:51.688Z,50.13
2023-05-21T13:17:19.889Z,49.44
2023-05-21T13:20:18.402Z,49.52
2023-05-21T13:22:49.995Z,48.66
2023-05-21T13:25:20.989Z,48.83
2023-05-21T13:27:49.326Z,50.13
2023-05-21T13:30:17.423Z,49.93
2023-05-21T13:32:45.201Z,48.94
2023-05-21T13:35:13.127Z,49.35
2023-05-21T13:37:41.062Z,49.14
2023-05-21T13:40:15.522Z,48.34
2023-05-21T13:42:47.889Z,47.86
2023-05-21T13:45:17.291Z,47.40
2023-05-21T13:47:46.237Z,47.83
2023-05-21T13:50:14.048Z,48.14
2023-05-21T13:52:41.678Z,48.47
2023-05-21T13:55:10.534Z,48.90
2023-05-21T13:57:37.979Z,49.43
2023-05-21T14:00:06.065Z,49.25
2023-05-21T14:02:35.295Z,49.25
2023-05-21T14:05:02.736Z,49.07
2023-05-21T14:07:30.217Z,48.57
2023-05-21T14:09:58.211Z,49.20
2023-05-21T14:12:26.688Z,48.59
2023-05-21T14:14:53.950Z,48.30
2023-05-21T14:17:21.285Z,48.92
2023-05-21T14:19:48.704Z,48.73
2023-05-21T14:22:16.071Z,48.63
2023-05-21T14:24:43.404Z,47.92
2023-05-21T14:27:11.395Z,48.56
2023-05-21T14:29:39.555Z,48.74
2023-05-21T14:32:07.579Z,48.88
2023-05-21T14:34:35.039Z,49.46
2023-05-21T14:37:02.339Z,48.42
2023-05-21T14:39:29.750Z,48.13
2023-05-21T14:41:57.132Z,47.98
2023-05-21T14:44:24.446Z,48.37
2023-05-21T14:46:51.759Z,48.55
2023-05-21T14:49:19.150Z,48.64
2023-05-21T14:51:47.631Z,48.63
2023-05-21T14:54:14.975Z,49.69
2023-05-21T14:56:42.358Z,49.03
2023-05-21T14:59:11.475Z,49.58
2023-05-21T15:01:39.195Z,48.32
2023-05-21T15:04:08.042Z,48.54
2023-05-21T15:06:35.519Z,48.15
2023-05-21T15:09:02.999Z,47.68
2023-05-21T15:11:30.321Z,48.14
2023-05-21T15:13:57.837Z,48.93
2023-05-21T15:16:25.278Z,49.57
2023-05-21T15:18:53.483Z,49.10
2023-05-21T15:21:20.929Z,48.57
2023-05-21T15:23:48.315Z,48.21
2023-05-21T15:26:15.550Z,47.81
2023-05-21T15:28:43.428Z,48.07
2023-05-21T15:31:11.334Z,49.08
2023-05-21T15:33:38.588Z,49.81
2023-05-21T15:36:06.244Z,49.55
2023-05-21T15:38:33.594Z,49.30
2023-05-21T15:41:00.831Z,50.02
2023-05-21T15:43:28.049Z,49.78
2023-05-21T15:45:55.386Z,48.51
2023-05-21T15:48:23.124Z,49.60
2023-05-21T15:50:50.649Z,49.83
2023-05-21T15:53:17.925Z,50.23
2023-05-21T15:55:45.569Z,50.73
2023-05-21T15:58:12.994Z,50.83
2023-05-21T16:00:40.428Z,52.11
2023-05-21T16:03:08.114Z,51.70
2023-05-21T16:05:36.031Z,51.52
2023-05-21T16:08:03.672Z,51.73
2023-05-21T16:10:31.416Z,51.96
2023-05-21T16:12:59.095Z,52.24
2023-05-21T16:15:28.463Z,51.45
2023-05-21T16:17:55.970Z,51.39
2023-05-21T16:20:23.413Z,52.20
2023-05-21T16:22:51.161Z,52.64
2023-05-21T16:25:18.408Z,52.88
2023-05-21T16:27:45.739Z,53.26
2023-05-21T16:30:14.221Z,53.59
2023-05-21T16:32:41.835Z,52.69
2023-05-21T16:35:09.232Z,52.26
2023-05-21T16:37:36.597Z,52.15
2023-05-21T16:40:04.696Z,51.91
2023-05-21T16:42:32.048Z,52.66
2023-05-21T16:44:59.366Z,52.92
2023-05-21T16:47:26.727Z,52.74
2023-05-21T16:49:55.855Z,52.72
2023-05-21T16:52:23.823Z,52.95
2023-05-21T16:54:51.397Z,53.93
2023-05-21T16:57:18.685Z,53.30
2023-05-21T16:59:45.978Z,54.16
2023-05-21T17:02:13.863Z,53.84
2023-05-21T17:04:41.284Z,53.86
2023-05-21T17:07:08.631Z,54.18
2023-05-21T17:09:35.980Z,53.92
2023-05-21T17:12:03.802Z,54.40
2023-05-21T17:14:34.281Z,54.30
2023-05-21T17:17:01.977Z,54.72
2023-05-21T17:19:29.441Z,54.26
2023-05-21T17:21:56.986Z,54.45
2023-05-21T17:24:24.509Z,55.05
2023-05-21T17:26:53.032Z,55.91
2023-05-21T17:29:20.336Z,55.98
2023-05-21T17:31:47.937Z,56.06
2023-05-21T17:34:16.770Z,55.92
2023-05-21T17:36:44.178Z,57.21
2023-05-21T17:39:11.514Z,57.18
2023-05-21T17:41:38.794Z,58.04
2023-05-21T17:44:06.131Z,58.13
2023-05-21T17:46:33.605Z,58.37
2023-05-21T17:49:00.839Z,58.80
2023-05-21T17:51:28.325Z,58.93
2023-05-21T17:53:56.123Z,59.10
2023-05-21T17:56:23.522Z,59.05
2023-05-21T17:58:51.056Z,60.31
2023-05-21T18:01:19.150Z,60.08
2023-05-21T18:03:46.677Z,60.00
2023-05-21T18:06:13.993Z,59.33
2023-05-21T18:08:41.318Z,60.81
2023-05-21T18:11:08.815Z,60.37
2023-05-21T18:13:36.120Z,61.90
2023-05-21T18:16:03.465Z,61.97
2023-05-21T18:18:30.929Z,61.13
2023-05-21T18:20:58.497Z,61.03
2023-05-21T18:23:28.536Z,61.78
2023-05-21T18:25:56.231Z,61.27
2023-05-21T18:28:23.473Z,61.46
2023-05-21T18:30:50.886Z,62.63
2023-05-21T18:33:18.290Z,62.83
2023-05-21T18:35:45.905Z,62.96
2023-05-21T18:38:13.508Z,63.30
2023-05-21T18:40:41.228Z,63.43
2023-05-21T18:43:10.839Z,62.77
2023-05-21T18:45:38.219Z,63.50
2023-05-21T18:48:05.882Z,63.02
2023-05-21T18:50:34.959Z,63.91
2023-05-21T18:53:02.768Z,64.42
2023-05-21T18:55:30.086Z,64.71
2023-05-21T18:57:57.392Z,65.03
2023-05-21T19:00:24.741Z,65.06
2023-05-21T19:02:52.187Z,65.78
2023-05-21T19:05:19.673Z,66.38
2023-05-21T19:07:47.428Z,66.77
2023-05-21T19:10:14.717Z,67.78
2023-05-21T19:12:43.412Z,67.56
2023-05-21T19:15:11.403Z,68.10
2023-05-21T19:17:39.924Z,68.44
2023-05-21T19:20:09.119Z,68.39
2023-05-21T19:22:37.231Z,67.20
2023-05-21T19:25:05.018Z,66.28
2023-05-21T19:27:32.434Z,67.00
2023-05-21T19:29:59.710Z,67.34
2023-05-21T19:32:27.171Z,69.21
2023-05-21T19:34:54.595Z,69.73
2023-05-21T19:37:22.302Z,70.01
2023-05-21T19:39:50.300Z,71.51
2023-05-21T19:42:18.516Z,70.86
2023-05-21T19:44:46.249Z,71.49
2023-05-21T19:47:13.810Z,73.16
2023-05-21T19:49:41.072Z,71.89
2023-05-21T19:52:08.743Z,72.00
2023-05-21T19:54:36.339Z,72.53
2023-05-21T19:57:03.820Z,73.46
2023-05-21T19:59:31.135Z,72.90
2023-05-21T20:01:58.686Z,73.93
2023-05-21T20:04:26.124Z,74.86
2023-05-21T20:06:53.517Z,75.63
2023-05-21T20:09:20.918Z,74.86
2023-05-21T20:11:48.715Z,74.40
2023-05-21T20:14:16.269Z,74.90
2023-05-21T20:16:47.211Z,75.91
2023-05-21T20:19:15.309Z,75.46
2023-05-21T20:21:42.939Z,75.38
2023-05-21T20:24:11.405Z,75.32
2023-05-21T20:26:39.798Z,75.96
2023-05-21T20:29:08.241Z,74.97
2023-05-21T20:31:36.047Z,75.39
2023-05-21T20:34:07.877Z,75.81
2023-05-21T20:36:36.429Z,76.20
2023-05-21T20:39:03.853Z,76.84
2023-05-21T20:41:37.380Z,76.82
2023-05-21T20:44:05.378Z,75.44
2023-05-21T20:46:33.102Z,76.52
2023-05-21T20:49:00.545Z,75.63
2023-05-21T20:51:27.831Z,76.96
2023-05-21T20:53:55.331Z,77.34
2023-05-21T20:56:40.016Z,77.75
2023-05-21T20:59:09.245Z,76.77
2023-05-21T21:01:39.243Z,76.49
2023-05-21T21:04:06.711Z,77.71
2023-05-21T21:06:34.895Z,77.60
2023-05-21T21:09:02.176Z,76.26
2023-05-21T21:11:29.436Z,77.10
2023-05-21T21:13:56.777Z,78.31
2023-05-21T21:16:24.142Z,77.82
2023-05-21T21:18:51.561Z,78.94
2023-05-21T21:21:19.462Z,79.48
2023-05-21T21:23:46.801Z,78.34
2023-05-21T21:26:14.112Z,78.04
2023-05-21T21:28:41.532Z,76.85
2023-05-21T21:31:08.878Z,77.94
2023-05-21T21:33:36.197Z,78.01
2023-05-21T21:36:03.694Z,78.30
2023-05-21T21:38:30.889Z,76.81
2023-05-21T21:40:58.131Z,77.05
2023-05-21T21:43:25.523Z,77.38
2023-05-21T21:45:52.821Z,77.32
2023-05-21T21:48:20.189Z,77.32
2023-05-21T21:50:47.562Z,76.04
2023-05-21T21:53:14.867Z,76.92
2023-05-21T21:55:42.238Z,76.43
2023-05-21T21:58:09.518Z,76.21
2023-05-21T22:00:37.431Z,77.39
2023-05-21T22:03:05.062Z,76.62
2023-05-21T22:05:32.680Z,77.49
2023-05-21T22:08:00.167Z,77.13
2023-05-21T22:10:27.533Z,76.90
2023-05-21T22:12:54.784Z,76.67
2023-05-21T22:15:28.705Z,76.48
2023-05-21T22:17:56.237Z,76.74
2023-05-21T22:20:23.600Z,76.35
2023-05-21T22:22:51.701Z,75.55
2023-05-21T22:25:19.821Z,73.69
2023-05-21T22:27:47.133Z,73.56
2023-05-21T22:30:14.486Z,72.47
2023-05-21T22:32:41.855Z,73.98
2023-05-21T22:35:09.668Z,75.47
2023-05-21T22:37:37.430Z,74.04
2023-05-21T22:40:08.614Z,73.44
2023-05-21T22:42:36.423Z,76.10
2023-05-21T22:45:04.314Z,77.07
2023-05-21T22:47:32.315Z,77.25
2023-05-21T22:50:00.845Z,78.12
2023-05-21T22:52:28.825Z,78.06
2023-05-21T22:54:57.837Z,77.84
2023-05-21T22:57:25.126Z,77.88
2023-05-21T22:59:52.516Z,78.35
2023-05-21T23:02:19.772Z,78.36
2023-05-21T23:04:48.361Z,77.15
2023-05-21T23:07:16.044Z,76.74
2023-05-21T23:09:43.475Z,76.65
2023-05-21T23:12:11.038Z,77.34
2023-05-21T23:14:38.368Z,77.53
2023-05-21T23:17:05.934Z,78.48
2023-05-21T23:19:33.565Z,77.78
2023-05-21T23:22:01.010Z,76.78
2023-05-21T23:24:29.564Z,77.06
2023-05-21T23:27:02.112Z,77.94
2023-05-21T23:29:30.397Z,77.39
2023-05-21T23:31:58.079Z,77.64
2023-05-21T23:34:25.751Z,77.73
2023-05-21T23:36:53.375Z,75.67
2023-05-21T23:39:21.172Z,75.39
2023-05-21T23:41:48.926Z,77.02
2023-05-21T23:44:16.381Z,77.84
2023-05-21T23:46:43.682Z,78.80
2023-05-21T23:49:11.591Z,79.99
2023-05-21T23:51:39.540Z,78.32
2023-05-21T23:54:08.000Z,77.70
2023-05-21T23:56:35.551Z,78.46
2023-05-21T23:59:02.884Z,79.06
